createdAt,value
2019-02-26T00:00:14.410Z,5.30
2019-02-26T00:01:26.183Z,5.40
2019-02-26T00:02:38.191Z,4.67
2019-02-26T00:03:49.296Z,4.77
2019-02-26T00:04:58.544Z,5.20
2019-02-26T00:06:07.061Z,4.73
2019-02-26T00:07:18.263Z,5.00
2019-02-26T00:08:31.700Z,4.73
2019-02-26T00:09:41.335Z,5.43
2019-02-26T00:10:50.306Z,4.93
2019-02-26T00:11:59.776Z,4.83
2019-02-26T00:13:10.631Z,4.63
2019-02-26T00:14:20.248Z,5.60
2019-02-26T00:15:33.384Z,4.83
2019-02-26T00:16:42.413Z,4.73
2019-02-26T00:17:53.008Z,4.73
2019-02-26T00:19:03.146Z,4.57
2019-02-26T00:20:12.775Z,4.70
2019-02-26T00:21:24.428Z,4.73
2019-02-26T00:22:34.378Z,4.90
2019-02-26T00:23:46.662Z,4.77
2019-02-26T00:24:54.720Z,5.33
2019-02-26T00:26:05.721Z,4.87
2019-02-26T00:27:15.144Z,4.37
2019-02-26T00:28:26.301Z,5.50
2019-02-26T00:29:35.886Z,4.53
2019-02-26T00:30:43.866Z,4.73
2019-02-26T00:31:55.444Z,5.07
2019-02-26T00:33:03.504Z,4.73
2019-02-26T00:34:16.853Z,4.83
2019-02-26T00:35:27.671Z,5.00
2019-02-26T00:36:38.176Z,4.57
2019-02-26T00:37:47.035Z,4.67
2019-02-26T00:38:56.043Z,4.73
2019-02-26T00:40:05.483Z,4.10
2019-02-26T00:41:14.244Z,4.73
2019-02-26T00:42:26.356Z,4.60
2019-02-26T00:43:35.039Z,4.93
2019-02-26T00:44:43.802Z,4.50
2019-02-26T00:45:53.406Z,4.73
2019-02-26T00:47:03.910Z,4.60
2019-02-26T00:48:12.235Z,4.77
2019-02-26T00:49:23.688Z,4.80
2019-02-26T00:50:33.152Z,4.70
2019-02-26T00:51:44.371Z,4.77
2019-02-26T00:52:52.750Z,4.23
2019-02-26T00:54:01.982Z,4.67
2019-02-26T00:55:13.403Z,4.97
2019-02-26T00:56:22.822Z,4.80
2019-02-26T00:57:33.540Z,4.60
2019-02-26T00:58:44.497Z,4.83
2019-02-26T00:59:55.138Z,4.50
2019-02-26T01:01:03.850Z,4.63
2019-02-26T01:02:13.407Z,4.97
2019-02-26T01:03:22.137Z,4.57
2019-02-26T01:04:33.504Z,4.87
2019-02-26T01:05:43.151Z,4.47
2019-02-26T01:06:56.751Z,4.80
2019-02-26T01:08:10.505Z,5.03
2019-02-26T01:09:15.710Z,4.37
2019-02-26T01:10:24.707Z,4.87
2019-02-26T01:11:33.447Z,4.90
2019-02-26T01:12:42.863Z,4.90
2019-02-26T01:13:51.210Z,4.77
2019-02-26T01:15:04.661Z,4.43
2019-02-26T01:16:14.284Z,5.10
2019-02-26T01:17:22.970Z,5.13
2019-02-26T01:18:30.736Z,5.10
2019-02-26T01:19:42.983Z,4.50
2019-02-26T01:20:56.792Z,4.27
2019-02-26T01:22:06.108Z,4.30
2019-02-26T01:23:13.973Z,4.37
2019-02-26T01:24:23.526Z,5.37
2019-02-26T01:25:32.754Z,4.97
2019-02-26T01:26:42.684Z,5.07
2019-02-26T01:27:53.232Z,4.93
2019-02-26T01:29:01.838Z,4.70
2019-02-26T01:30:12.390Z,4.10
2019-02-26T01:31:24.723Z,4.73
2019-02-26T01:32:34.125Z,4.60
2019-02-26T01:33:43.639Z,4.90
2019-02-26T01:34:51.421Z,5.00
2019-02-26T01:36:00.287Z,5.00
2019-02-26T01:37:10.334Z,5.03
2019-02-26T01:38:21.275Z,4.97
2019-02-26T01:39:29.315Z,4.60
2019-02-26T01:40:41.539Z,4.60
2019-02-26T01:41:51.185Z,4.77
2019-02-26T01:43:02.570Z,4.63
2019-02-26T01:44:10.012Z,5.00
2019-02-26T01:45:21.755Z,4.77
2019-02-26T01:46:32.889Z,4.57
2019-02-26T01:47:45.273Z,4.63
2019-02-26T01:48:55.058Z,4.67
2019-02-26T01:50:04.637Z,3.93
2019-02-26T01:51:17.022Z,4.80
2019-02-26T01:52:26.423Z,4.63
2019-02-26T01:53:35.308Z,4.17
2019-02-26T01:54:47.532Z,4.67
2019-02-26T01:55:56.241Z,4.03
2019-02-26T01:57:04.074Z,4.57
2019-02-26T01:58:16.600Z,4.77
2019-02-26T01:59:24.979Z,4.63
2019-02-26T02:00:38.663Z,4.33
2019-02-26T02:01:46.516Z,4.33
2019-02-26T02:02:57.138Z,4.30
2019-02-26T02:04:08.746Z,4.50
2019-02-26T02:05:21.422Z,4.60
2019-02-26T02:06:32.119Z,4.77
2019-02-26T02:07:39.901Z,4.40
2019-02-26T02:08:50.475Z,4.40
2019-02-26T02:10:00.607Z,4.00
2019-02-26T02:11:12.050Z,4.20
2019-02-26T02:12:19.815Z,4.20
2019-02-26T02:13:30.673Z,4.43
2019-02-26T02:14:38.920Z,4.60
2019-02-26T02:15:47.734Z,4.27
2019-02-26T02:16:59.032Z,4.23
2019-02-26T02:18:07.722Z,4.47
2019-02-26T02:19:20.061Z,3.90
2019-02-26T02:20:27.401Z,4.27
2019-02-26T02:21:39.668Z,4.23
2019-02-26T02:22:50.247Z,3.80
2019-02-26T02:23:58.849Z,3.90
2019-02-26T02:25:08.663Z,4.33
2019-02-26T02:26:19.974Z,3.83
2019-02-26T02:27:31.048Z,3.83
2019-02-26T02:28:40.226Z,3.87
2019-02-26T02:29:51.254Z,3.70
2019-02-26T02:31:00.783Z,4.23
2019-02-26T02:32:08.593Z,4.60
2019-02-26T02:33:24.245Z,4.37
2019-02-26T02:34:33.049Z,3.67
2019-02-26T02:35:43.332Z,4.43
2019-02-26T02:36:51.060Z,3.90
2019-02-26T02:38:00.097Z,4.30
2019-02-26T02:39:13.015Z,3.93
2019-02-26T02:40:21.461Z,4.30
2019-02-26T02:41:30.137Z,4.00
2019-02-26T02:42:40.233Z,4.00
2019-02-26T02:43:50.203Z,4.13
2019-02-26T02:44:59.800Z,4.40
2019-02-26T02:46:07.580Z,3.90
2019-02-26T02:47:16.859Z,3.63
2019-02-26T02:48:24.667Z,4.30
2019-02-26T02:49:38.249Z,4.23
2019-02-26T02:50:44.915Z,4.43
2019-02-26T02:51:58.862Z,3.70
2019-02-26T02:53:06.989Z,4.10
2019-02-26T02:54:18.570Z,4.17
2019-02-26T02:55:26.855Z,4.30
2019-02-26T02:56:39.883Z,4.20
2019-02-26T02:57:52.365Z,3.77
2019-02-26T02:58:58.597Z,4.03
2019-02-26T03:00:09.119Z,4.20
2019-02-26T03:01:20.384Z,3.40
2019-02-26T03:02:30.640Z,3.50
2019-02-26T03:03:39.861Z,3.80
2019-02-26T03:04:47.997Z,3.80
2019-02-26T03:05:58.231Z,3.67
2019-02-26T03:07:06.358Z,3.70
2019-02-26T03:08:16.342Z,3.90
2019-02-26T03:09:25.124Z,3.77
2019-02-26T03:10:34.574Z,3.37
2019-02-26T03:11:46.427Z,4.13
2019-02-26T03:12:57.643Z,4.23
2019-02-26T03:14:08.299Z,3.47
2019-02-26T03:15:16.265Z,3.87
2019-02-26T03:16:26.802Z,3.47
2019-02-26T03:17:34.433Z,3.60
2019-02-26T03:18:43.112Z,3.40
2019-02-26T03:19:50.895Z,3.47
2019-02-26T03:20:59.977Z,3.57
2019-02-26T03:22:09.806Z,3.70
2019-02-26T03:23:20.297Z,3.73
2019-02-26T03:24:30.778Z,4.10
2019-02-26T03:25:37.567Z,3.63
2019-02-26T03:26:47.397Z,3.60
2019-02-26T03:27:56.216Z,3.43
2019-02-26T03:29:04.015Z,4.13
2019-02-26T03:30:26.525Z,3.87
2019-02-26T03:31:31.044Z,3.73
2019-02-26T03:32:41.430Z,3.90
2019-02-26T03:33:48.079Z,3.63
2019-02-26T03:34:55.967Z,4.00
2019-02-26T03:36:07.585Z,3.97
2019-02-26T03:37:15.806Z,3.57
2019-02-26T03:38:26.248Z,3.77
2019-02-26T03:39:34.390Z,4.10
2019-02-26T03:40:43.878Z,4.17
2019-02-26T03:41:54.151Z,3.50
2019-02-26T03:43:04.528Z,3.70
2019-02-26T03:44:16.662Z,3.57
2019-02-26T03:45:25.475Z,3.83
2019-02-26T03:46:33.159Z,3.67
2019-02-26T03:47:43.832Z,4.07
2019-02-26T03:48:56.852Z,3.93
2019-02-26T03:50:08.567Z,4.00
2019-02-26T03:51:17.144Z,3.63
2019-02-26T03:52:26.112Z,3.70
2019-02-26T03:53:36.436Z,3.87
2019-02-26T03:54:47.995Z,3.80
2019-02-26T03:55:59.590Z,3.50
2019-02-26T03:57:05.105Z,3.87
2019-02-26T03:58:12.981Z,3.60
2019-02-26T03:59:21.208Z,3.43
2019-02-26T04:00:32.454Z,4.17
2019-02-26T04:01:42.570Z,4.00
2019-02-26T04:02:52.127Z,3.53
2019-02-26T04:04:05.481Z,3.87
2019-02-26T04:05:13.848Z,4.10
2019-02-26T04:06:24.270Z,3.83
2019-02-26T04:07:33.950Z,3.80
2019-02-26T04:08:46.196Z,3.60
2019-02-26T04:09:55.927Z,3.70
2019-02-26T04:11:06.206Z,3.67
2019-02-26T04:12:18.467Z,3.47
2019-02-26T04:13:28.475Z,3.93
2019-02-26T04:14:37.157Z,3.70
2019-02-26T04:15:51.360Z,3.90
2019-02-26T04:17:00.859Z,3.40
2019-02-26T04:18:08.314Z,3.80
2019-02-26T04:19:17.102Z,3.07
2019-02-26T04:20:27.743Z,3.53
2019-02-26T04:22:27.621Z,3.47
2019-02-26T04:23:38.805Z,3.63
2019-02-26T04:24:46.134Z,3.87
2019-02-26T04:26:59.954Z,3.60
2019-02-26T04:28:45.636Z,2.63
2019-02-26T04:30:41.613Z,3.03
2019-02-26T04:32:54.593Z,3.23
2019-02-26T04:35:12.595Z,3.70
2019-02-26T04:36:59.033Z,3.50
2019-02-26T04:38:53.000Z,3.30
2019-02-26T04:40:30.501Z,3.47
2019-02-26T04:42:22.675Z,4.33
2019-02-26T04:44:12.211Z,4.17
2019-02-26T04:46:39.350Z,3.47
2019-02-26T04:47:49.503Z,3.97
2019-02-26T04:48:57.948Z,3.63
2019-02-26T04:50:08.959Z,3.57
2019-02-26T04:51:18.038Z,4.83
2019-02-26T04:52:26.605Z,4.27
2019-02-26T04:53:36.465Z,4.13
2019-02-26T04:54:44.176Z,3.60
2019-02-26T04:55:52.985Z,3.93
2019-02-26T04:57:02.537Z,3.83
2019-02-26T04:58:14.735Z,4.20
2019-02-26T04:59:21.656Z,4.90
2019-02-26T05:00:35.326Z,4.27
2019-02-26T05:01:44.693Z,4.20
2019-02-26T05:02:53.141Z,4.27
2019-02-26T05:04:00.861Z,4.23
2019-02-26T05:05:08.634Z,4.20
2019-02-26T05:06:16.186Z,4.53
2019-02-26T05:07:23.748Z,4.83
2019-02-26T05:08:32.083Z,4.83
2019-02-26T05:09:40.880Z,4.30
2019-02-26T05:10:49.809Z,4.73
2019-02-26T05:11:57.715Z,4.57
2019-02-26T05:13:07.389Z,4.13
2019-02-26T05:14:16.847Z,4.27
2019-02-26T05:15:26.403Z,3.97
2019-02-26T05:16:35.317Z,4.37
2019-02-26T05:17:42.384Z,4.33
2019-02-26T05:18:51.672Z,4.50
2019-02-26T05:19:59.287Z,4.10
2019-02-26T05:21:08.326Z,4.40
2019-02-26T05:22:16.167Z,4.50
2019-02-26T05:23:25.907Z,3.93
2019-02-26T05:24:33.012Z,4.20
2019-02-26T05:25:44.845Z,4.37
2019-02-26T05:26:54.802Z,4.70
2019-02-26T05:28:06.294Z,4.00
2019-02-26T05:29:14.673Z,3.77
2019-02-26T05:30:30.640Z,3.93
2019-02-26T05:31:40.227Z,4.03
2019-02-26T05:32:51.111Z,4.03
2019-02-26T05:34:00.278Z,4.97
2019-02-26T05:35:11.605Z,4.07
2019-02-26T05:36:23.374Z,4.33
2019-02-26T05:37:35.374Z,4.33
2019-02-26T05:38:43.924Z,4.07
2019-02-26T05:39:54.593Z,4.53
2019-02-26T05:41:05.402Z,3.77
2019-02-26T05:42:13.042Z,4.20
2019-02-26T05:43:23.073Z,4.40
2019-02-26T05:44:36.074Z,4.70
2019-02-26T05:45:45.018Z,4.67
2019-02-26T05:46:54.042Z,4.60
2019-02-26T05:48:03.079Z,5.33
2019-02-26T05:49:15.753Z,5.30
2019-02-26T05:50:23.461Z,5.00
2019-02-26T05:51:33.502Z,5.43
2019-02-26T05:52:41.622Z,4.80
2019-02-26T05:53:52.174Z,4.50
2019-02-26T05:55:02.373Z,4.17
2019-02-26T05:56:17.148Z,4.30
2019-02-26T05:57:27.615Z,4.00
2019-02-26T05:58:38.764Z,4.50
2019-02-26T05:59:45.698Z,4.90
2019-02-26T06:00:56.705Z,4.23
2019-02-26T06:02:05.574Z,3.90
2019-02-26T06:03:18.560Z,4.63
2019-02-26T06:04:27.088Z,4.47
2019-02-26T06:05:35.878Z,3.83
2019-02-26T06:06:43.695Z,4.40
2019-02-26T06:07:54.454Z,3.97
2019-02-26T06:09:02.924Z,3.40
2019-02-26T06:10:12.842Z,4.30
2019-02-26T06:11:20.578Z,3.60
2019-02-26T06:12:30.561Z,3.93
2019-02-26T06:13:41.113Z,3.90
2019-02-26T06:14:51.511Z,3.67
2019-02-26T06:16:02.200Z,3.80
2019-02-26T06:17:10.515Z,3.70
2019-02-26T06:18:21.020Z,4.20
2019-02-26T06:19:46.058Z,3.90
2019-02-26T06:20:55.908Z,3.53
2019-02-26T06:22:05.512Z,3.67
2019-02-26T06:23:15.174Z,3.63
2019-02-26T06:24:26.774Z,3.63
2019-02-26T06:25:33.939Z,3.60
2019-02-26T06:26:46.870Z,3.70
2019-02-26T06:27:56.376Z,3.80
2019-02-26T06:29:07.648Z,3.87
2019-02-26T06:30:16.832Z,3.70
2019-02-26T06:31:25.150Z,3.93
2019-02-26T06:32:36.728Z,3.93
2019-02-26T06:33:47.176Z,3.23
2019-02-26T06:34:55.324Z,3.57
2019-02-26T06:36:06.529Z,3.97
2019-02-26T06:37:23.892Z,4.30
2019-02-26T06:38:34.968Z,4.70
2019-02-26T06:39:43.477Z,4.17
2019-02-26T06:40:51.435Z,4.30
2019-02-26T06:42:03.080Z,4.43
2019-02-26T06:43:12.166Z,3.90
2019-02-26T06:44:21.547Z,4.47
2019-02-26T06:45:29.148Z,4.87
2019-02-26T06:46:47.198Z,4.40
2019-02-26T06:47:58.525Z,4.30
2019-02-26T06:49:07.065Z,3.93
2019-02-26T06:50:16.592Z,4.00
2019-02-26T06:51:28.133Z,4.10
2019-02-26T06:52:38.188Z,3.80
2019-02-26T06:53:49.264Z,4.10
2019-02-26T06:54:59.595Z,3.83
2019-02-26T06:56:06.629Z,4.10
2019-02-26T06:57:20.429Z,4.33
2019-02-26T06:58:33.507Z,4.40
2019-02-26T06:59:41.189Z,4.17
2019-02-26T07:00:54.664Z,4.20
2019-02-26T07:02:00.050Z,4.20
2019-02-26T07:03:07.701Z,4.03
2019-02-26T07:04:16.824Z,3.90
2019-02-26T07:05:25.480Z,4.47
2019-02-26T07:06:34.972Z,4.03
2019-02-26T07:07:42.739Z,4.30
2019-02-26T07:08:51.096Z,3.93
2019-02-26T07:10:01.237Z,4.57
2019-02-26T07:11:12.735Z,4.50
2019-02-26T07:12:23.996Z,4.80
2019-02-26T07:13:33.870Z,4.73
2019-02-26T07:14:46.476Z,3.87
2019-02-26T07:15:57.499Z,4.60
2019-02-26T07:17:07.068Z,3.83
2019-02-26T07:18:17.694Z,4.20
2019-02-26T07:19:27.950Z,4.27
2019-02-26T07:20:39.394Z,3.97
2019-02-26T07:21:47.913Z,3.93
2019-02-26T07:22:56.049Z,4.27
2019-02-26T07:24:03.789Z,4.73
2019-02-26T07:25:15.292Z,4.23
2019-02-26T07:26:23.971Z,4.40
2019-02-26T07:27:33.707Z,4.47
2019-02-26T07:28:44.619Z,4.50
2019-02-26T07:29:53.110Z,4.90
2019-02-26T07:31:07.334Z,5.13
2019-02-26T07:32:17.890Z,4.93
2019-02-26T07:33:27.256Z,5.07
2019-02-26T07:34:34.815Z,4.67
2019-02-26T07:35:42.532Z,3.80
2019-02-26T07:36:52.539Z,4.23
2019-02-26T07:38:03.626Z,4.13
2019-02-26T07:39:15.533Z,4.13
2019-02-26T07:40:28.420Z,3.63
2019-02-26T07:41:39.296Z,3.80
2019-02-26T07:42:49.308Z,4.10
2019-02-26T07:43:56.485Z,4.23
2019-02-26T07:45:14.684Z,4.50
2019-02-26T07:46:19.283Z,3.93
2019-02-26T07:47:31.422Z,3.97
2019-02-26T07:48:42.237Z,4.03
2019-02-26T07:49:49.958Z,4.00
2019-02-26T07:50:57.913Z,4.07
2019-02-26T07:52:08.808Z,4.60
2019-02-26T07:53:19.670Z,3.70
2019-02-26T07:54:28.820Z,3.67
2019-02-26T07:55:38.231Z,4.00
2019-02-26T07:56:50.090Z,3.30
2019-02-26T07:57:58.513Z,4.47
2019-02-26T07:59:07.851Z,4.63
2019-02-26T08:00:18.648Z,4.50
2019-02-26T08:01:28.621Z,4.73
2019-02-26T08:02:37.457Z,4.47
2019-02-26T08:03:47.015Z,4.50
2019-02-26T08:04:56.523Z,4.20
2019-02-26T08:06:08.670Z,4.47
2019-02-26T08:07:16.488Z,4.00
2019-02-26T08:08:24.177Z,4.20
2019-02-26T08:09:37.196Z,4.33
2019-02-26T08:10:50.616Z,4.53
2019-02-26T08:11:57.938Z,4.00
2019-02-26T08:13:08.030Z,4.67
2019-02-26T08:14:16.594Z,3.93
2019-02-26T08:15:27.643Z,4.20
2019-02-26T08:16:34.839Z,4.30
2019-02-26T08:17:47.770Z,4.63
2019-02-26T08:18:54.128Z,4.50
2019-02-26T08:20:07.394Z,3.90
2019-02-26T08:21:17.602Z,4.27
2019-02-26T08:22:27.524Z,4.30
2019-02-26T08:23:41.261Z,4.03
2019-02-26T08:24:50.915Z,3.90
2019-02-26T08:26:00.472Z,4.10
2019-02-26T08:27:13.435Z,4.50
2019-02-26T08:28:23.012Z,4.67
2019-02-26T08:29:31.298Z,5.37
2019-02-26T08:30:42.322Z,6.43
2019-02-26T08:31:52.044Z,8.80
2019-02-26T08:33:02.683Z,9.17
2019-02-26T08:34:12.600Z,7.50
2019-02-26T08:35:20.020Z,8.27
2019-02-26T08:36:29.030Z,8.70
2019-02-26T08:37:37.647Z,7.93
2019-02-26T08:38:48.226Z,7.73
2019-02-26T08:39:57.739Z,7.03
2019-02-26T08:41:07.128Z,7.67
2019-02-26T08:42:14.969Z,7.43
2019-02-26T08:43:24.564Z,6.37
2019-02-26T08:44:32.306Z,5.60
2019-02-26T08:45:43.735Z,5.80
2019-02-26T08:46:51.527Z,5.97
2019-02-26T08:48:02.169Z,6.43
2019-02-26T08:49:11.097Z,6.00
2019-02-26T08:50:20.873Z,5.47
2019-02-26T08:51:32.206Z,5.50
2019-02-26T08:52:40.014Z,5.33
2019-02-26T08:53:49.592Z,5.43
2019-02-26T08:54:59.002Z,4.47
2019-02-26T08:56:08.426Z,4.77
2019-02-26T08:57:17.790Z,4.93
2019-02-26T08:58:26.377Z,4.87
2019-02-26T08:59:35.116Z,4.97
2019-02-26T09:00:45.351Z,5.30
2019-02-26T09:01:54.157Z,6.03
2019-02-26T09:03:01.940Z,6.43
2019-02-26T09:04:09.782Z,6.20
2019-02-26T09:05:17.836Z,6.63
2019-02-26T09:06:27.042Z,5.97
2019-02-26T09:07:34.915Z,5.30
2019-02-26T09:08:43.869Z,4.80
2019-02-26T09:09:55.385Z,4.20
2019-02-26T09:11:03.550Z,4.13
2019-02-26T09:12:15.129Z,4.30
2019-02-26T09:13:25.453Z,4.30
2019-02-26T09:14:37.508Z,4.30
2019-02-26T09:15:45.908Z,4.33
2019-02-26T09:16:54.949Z,4.30
2019-02-26T09:18:04.859Z,4.23
2019-02-26T09:19:14.288Z,4.30
2019-02-26T09:20:24.554Z,4.43
2019-02-26T09:21:36.955Z,4.23
2019-02-26T09:22:48.850Z,4.23
2019-02-26T09:24:00.007Z,4.77
2019-02-26T09:25:08.172Z,4.60
2019-02-26T09:26:17.427Z,4.70
2019-02-26T09:27:27.098Z,4.37
2019-02-26T09:28:36.395Z,4.40
2019-02-26T09:29:49.614Z,4.27
2019-02-26T09:31:01.043Z,4.50
2019-02-26T09:32:09.336Z,4.13
2019-02-26T09:33:17.319Z,3.73
2019-02-26T09:34:29.283Z,4.20
2019-02-26T09:35:37.087Z,4.00
2019-02-26T09:36:50.618Z,4.20
2019-02-26T09:38:00.718Z,4.27
2019-02-26T09:39:08.778Z,4.37
2019-02-26T09:40:23.505Z,4.40
2019-02-26T09:41:29.655Z,4.80
2019-02-26T09:42:43.951Z,5.03
2019-02-26T09:43:52.812Z,4.60
2019-02-26T09:45:02.224Z,4.37
2019-02-26T09:46:16.316Z,4.33
2019-02-26T09:47:31.563Z,4.17
2019-02-26T09:48:44.726Z,4.77
2019-02-26T09:49:52.174Z,5.17
2019-02-26T09:51:02.007Z,4.20
2019-02-26T09:52:11.571Z,4.03
2019-02-26T09:53:22.130Z,4.33
2019-02-26T09:54:30.743Z,4.00
2019-02-26T09:55:39.803Z,4.40
2019-02-26T09:56:49.993Z,4.30
2019-02-26T09:58:02.414Z,4.60
2019-02-26T09:59:14.675Z,4.07
2019-02-26T10:00:28.560Z,4.13
2019-02-26T10:01:35.357Z,4.50
2019-02-26T10:02:44.725Z,4.10
2019-02-26T10:03:56.464Z,4.23
2019-02-26T10:05:08.512Z,4.47
2019-02-26T10:06:16.777Z,4.37
2019-02-26T10:07:28.561Z,4.70
2019-02-26T10:08:38.288Z,4.13
2019-02-26T10:09:48.473Z,4.43
2019-02-26T10:10:59.642Z,4.30
2019-02-26T10:12:10.659Z,3.83
2019-02-26T10:13:21.107Z,3.67
2019-02-26T10:14:33.387Z,3.47
2019-02-26T10:15:44.326Z,4.03
2019-02-26T10:16:56.888Z,3.77
2019-02-26T10:18:07.238Z,3.83
2019-02-26T10:19:16.874Z,4.30
2019-02-26T10:20:28.783Z,3.93
2019-02-26T10:21:37.332Z,3.87
2019-02-26T10:22:47.592Z,3.80
2019-02-26T10:23:59.450Z,3.67
2019-02-26T10:25:09.099Z,3.40
2019-02-26T10:26:16.930Z,3.97
2019-02-26T10:27:25.835Z,3.83
2019-02-26T10:28:37.647Z,3.73
2019-02-26T10:29:47.539Z,3.50
2019-02-26T10:31:03.238Z,3.60
2019-02-26T10:32:12.038Z,3.63
2019-02-26T10:33:22.109Z,3.20
2019-02-26T10:34:30.430Z,3.37
2019-02-26T10:35:42.139Z,3.33
2019-02-26T10:36:52.912Z,3.53
2019-02-26T10:38:03.613Z,3.53
2019-02-26T10:39:11.500Z,3.13
2019-02-26T10:40:19.678Z,4.13
2019-02-26T10:41:29.645Z,3.50
2019-02-26T10:42:39.955Z,3.37
2019-02-26T10:43:47.766Z,3.07
2019-02-26T10:44:56.656Z,3.40
2019-02-26T10:46:04.397Z,3.77
2019-02-26T10:47:13.313Z,3.40
2019-02-26T10:48:22.762Z,2.90
2019-02-26T10:49:30.713Z,3.13
2019-02-26T10:50:40.300Z,3.47
2019-02-26T10:51:48.046Z,3.17
2019-02-26T10:53:01.435Z,3.03
2019-02-26T10:54:09.645Z,3.60
2019-02-26T10:55:21.884Z,3.37
2019-02-26T10:56:30.569Z,3.30
2019-02-26T10:57:39.113Z,2.90
2019-02-26T10:58:49.514Z,3.07
2019-02-26T10:59:59.641Z,3.50
2019-02-26T11:01:10.349Z,3.27
2019-02-26T11:02:22.101Z,2.87
2019-02-26T11:03:35.344Z,2.47
2019-02-26T11:04:43.445Z,2.70
2019-02-26T11:05:52.206Z,3.13
2019-02-26T11:07:01.680Z,2.33
2019-02-26T11:08:09.600Z,2.70
2019-02-26T11:09:22.371Z,2.47
2019-02-26T11:10:29.929Z,3.00
2019-02-26T11:11:39.850Z,3.13
2019-02-26T11:12:53.525Z,3.03
2019-02-26T11:14:02.694Z,2.83
2019-02-26T11:15:10.956Z,2.57
2019-02-26T11:16:25.267Z,2.90
2019-02-26T11:17:32.425Z,3.23
2019-02-26T11:18:42.747Z,3.03
2019-02-26T11:19:52.995Z,3.60
2019-02-26T11:21:02.517Z,3.60
2019-02-26T11:22:11.918Z,3.27
2019-02-26T11:23:30.512Z,3.40
2019-02-26T11:24:33.687Z,3.40
2019-02-26T11:25:42.400Z,3.17
2019-02-26T11:26:50.277Z,3.33
2019-02-26T11:28:00.021Z,2.93
2019-02-26T11:29:08.760Z,3.33
2019-02-26T11:30:38.015Z,3.97
2019-02-26T11:31:47.730Z,3.40
2019-02-26T11:32:58.691Z,3.97
2019-02-26T11:34:09.234Z,3.73
2019-02-26T11:35:17.010Z,4.20
2019-02-26T11:36:25.156Z,4.07
2019-02-26T11:37:34.954Z,4.27
2019-02-26T11:38:44.511Z,4.50
2019-02-26T11:39:55.020Z,4.57
2019-02-26T11:41:04.667Z,4.27
2019-02-26T11:42:13.402Z,3.60
2019-02-26T11:43:23.885Z,4.10
2019-02-26T11:44:31.560Z,4.70
2019-02-26T11:45:41.460Z,4.50
2019-02-26T11:46:51.373Z,4.70
2019-02-26T11:48:03.719Z,4.07
2019-02-26T11:49:14.841Z,4.93
2019-02-26T11:50:27.130Z,4.70
2019-02-26T11:51:37.163Z,5.70
2019-02-26T11:52:44.267Z,5.40
2019-02-26T11:53:53.046Z,5.70
2019-02-26T11:55:05.318Z,5.13
2019-02-26T11:56:10.671Z,5.10
2019-02-26T11:57:18.342Z,5.10
2019-02-26T11:58:26.998Z,5.50
2019-02-26T11:59:35.673Z,5.13
2019-02-26T12:00:52.420Z,5.50
2019-02-26T12:02:01.427Z,5.27
2019-02-26T12:03:09.495Z,4.80
2019-02-26T12:04:17.377Z,4.60
2019-02-26T12:05:32.812Z,5.97
2019-02-26T12:06:34.485Z,5.53
2019-02-26T12:07:42.064Z,5.47
2019-02-26T12:08:50.046Z,5.03
2019-02-26T12:09:58.434Z,4.90
2019-02-26T12:11:12.287Z,4.97
2019-02-26T12:12:16.223Z,5.33
2019-02-26T12:13:25.047Z,5.03
2019-02-26T12:14:34.697Z,5.10
2019-02-26T12:15:42.837Z,4.40
2019-02-26T12:16:50.547Z,5.03
2019-02-26T12:17:58.763Z,5.20
2019-02-26T12:19:08.245Z,4.60
2019-02-26T12:20:19.570Z,4.90
2019-02-26T12:21:32.203Z,4.33
2019-02-26T12:22:41.286Z,4.40
2019-02-26T12:23:49.788Z,4.60
2019-02-26T12:25:04.411Z,4.03
2019-02-26T12:26:10.031Z,4.47
2019-02-26T12:27:19.089Z,4.57
2019-02-26T12:28:31.752Z,4.30
2019-02-26T12:29:42.246Z,4.53
2019-02-26T12:30:52.285Z,3.70
2019-02-26T12:32:04.816Z,3.83
2019-02-26T12:33:12.415Z,3.63
2019-02-26T12:34:24.052Z,3.50
2019-02-26T12:35:33.844Z,3.50
2019-02-26T12:36:43.413Z,3.73
2019-02-26T12:37:53.897Z,3.93
2019-02-26T12:39:02.421Z,3.03
2019-02-26T12:40:13.797Z,3.67
2019-02-26T12:41:24.072Z,3.30
2019-02-26T12:42:34.286Z,3.03
2019-02-26T12:43:46.468Z,3.40
2019-02-26T12:44:57.444Z,3.67
2019-02-26T12:46:08.443Z,3.60
2019-02-26T12:47:18.736Z,3.60
2019-02-26T12:48:27.257Z,3.47
2019-02-26T12:49:38.392Z,3.17
2019-02-26T12:50:47.594Z,3.37
2019-02-26T12:51:56.684Z,3.20
2019-02-26T12:53:08.734Z,3.37
2019-02-26T12:54:17.415Z,3.00
2019-02-26T12:55:29.469Z,3.07
2019-02-26T12:56:37.351Z,3.53
2019-02-26T12:57:49.811Z,3.40
2019-02-26T12:58:59.835Z,3.20
2019-02-26T13:00:13.367Z,3.10
2019-02-26T13:01:22.198Z,3.33
2019-02-26T13:02:31.595Z,3.40
2019-02-26T13:03:42.761Z,3.53
2019-02-26T13:04:53.372Z,3.47
2019-02-26T13:06:01.823Z,3.47
2019-02-26T13:07:12.466Z,3.77
2019-02-26T13:08:24.118Z,3.37
2019-02-26T13:09:39.091Z,3.17
2019-02-26T13:10:49.748Z,3.67
2019-02-26T13:12:02.339Z,4.43
2019-02-26T13:13:09.945Z,3.67
2019-02-26T13:14:18.648Z,4.00
2019-02-26T13:15:27.719Z,3.70
2019-02-26T13:16:35.628Z,3.50
2019-02-26T13:17:44.498Z,4.17
2019-02-26T13:18:58.517Z,4.10
2019-02-26T13:20:06.085Z,3.50
2019-02-26T13:21:16.996Z,3.83
2019-02-26T13:22:24.407Z,3.80
2019-02-26T13:23:34.979Z,4.07
2019-02-26T13:24:43.767Z,3.90
2019-02-26T13:25:55.816Z,3.70
2019-02-26T13:27:04.526Z,3.87
2019-02-26T13:28:13.139Z,3.90
2019-02-26T13:29:25.290Z,3.50
2019-02-26T13:30:33.216Z,3.57
2019-02-26T13:31:50.163Z,3.67
2019-02-26T13:32:56.225Z,3.97
2019-02-26T13:34:02.666Z,3.37
2019-02-26T13:35:11.204Z,3.43
2019-02-26T13:36:19.351Z,3.13
2019-02-26T13:37:34.673Z,3.10
2019-02-26T13:38:44.843Z,3.23
2019-02-26T13:39:51.199Z,3.00
2019-02-26T13:42:18.148Z,3.17
2019-02-26T13:43:24.059Z,3.30
2019-02-26T13:44:31.782Z,3.67
2019-02-26T13:45:39.700Z,3.63
2019-02-26T13:46:48.483Z,3.23
2019-02-26T13:48:01.314Z,3.10
2019-02-26T13:49:07.455Z,2.80
2019-02-26T13:50:22.737Z,2.97
2019-02-26T13:51:33.743Z,3.20
2019-02-26T13:52:43.286Z,3.50
2019-02-26T13:53:52.675Z,2.80
2019-02-26T13:55:03.870Z,3.00
2019-02-26T13:56:11.834Z,2.90
2019-02-26T13:57:19.360Z,2.30
2019-02-26T13:58:26.794Z,2.20
2019-02-26T13:59:34.222Z,2.30
2019-02-26T14:00:41.975Z,2.00
2019-02-26T14:01:49.142Z,2.23
2019-02-26T14:02:56.298Z,1.70
2019-02-26T14:04:03.477Z,2.10
2019-02-26T14:05:12.220Z,2.10
2019-02-26T14:06:19.463Z,2.10
2019-02-26T14:07:26.828Z,1.70
2019-02-26T14:08:33.994Z,1.80
2019-02-26T14:09:41.160Z,1.80
2019-02-26T14:10:49.401Z,1.60
2019-02-26T14:11:56.562Z,1.70
2019-02-26T14:13:03.927Z,1.70
2019-02-26T14:14:11.108Z,2.07
2019-02-26T14:15:21.933Z,1.87
2019-02-26T14:16:32.571Z,2.03
2019-02-26T14:17:38.331Z,1.80
2019-02-26T14:18:45.774Z,2.03
2019-02-26T14:19:53.215Z,2.13
2019-02-26T14:21:00.657Z,2.20
2019-02-26T14:22:08.101Z,2.00
2019-02-26T14:23:15.638Z,2.17
2019-02-26T14:24:24.485Z,2.00
2019-02-26T14:25:32.033Z,1.97
2019-02-26T14:26:39.364Z,1.70
2019-02-26T14:27:47.021Z,1.80
2019-02-26T14:28:54.355Z,1.73
2019-02-26T14:30:01.721Z,2.10
2019-02-26T14:31:10.546Z,2.10
2019-02-26T14:32:17.708Z,1.83
2019-02-26T14:33:25.827Z,1.70
2019-02-26T14:34:33.005Z,2.03
2019-02-26T14:35:40.180Z,1.80
2019-02-26T14:36:47.412Z,1.63
2019-02-26T14:37:54.562Z,1.70
2019-02-26T14:39:01.734Z,1.63
2019-02-26T14:40:12.757Z,1.93
2019-02-26T14:41:21.186Z,1.73
2019-02-26T14:42:28.327Z,1.90
2019-02-26T14:43:35.477Z,2.23
2019-02-26T14:44:42.638Z,1.90
2019-02-26T14:45:49.801Z,2.27
2019-02-26T14:46:56.980Z,2.13
2019-02-26T14:48:04.146Z,2.07
2019-02-26T14:49:11.314Z,2.80
2019-02-26T14:50:18.931Z,2.40
2019-02-26T14:51:26.084Z,2.40
2019-02-26T14:52:33.258Z,2.70
2019-02-26T14:53:40.430Z,2.70
2019-02-26T14:54:47.507Z,2.63
2019-02-26T14:55:54.662Z,2.70
2019-02-26T14:57:01.831Z,3.03
2019-02-26T14:58:09.024Z,2.80
2019-02-26T14:59:16.207Z,2.90
2019-02-26T15:00:26.329Z,3.07
2019-02-26T15:01:33.478Z,3.03
2019-02-26T15:02:40.632Z,3.10
2019-02-26T15:03:47.715Z,3.30
2019-02-26T15:04:54.902Z,3.13
2019-02-26T15:06:02.065Z,3.00
2019-02-26T15:07:09.149Z,3.40
2019-02-26T15:08:16.325Z,3.30
2019-02-26T15:09:24.952Z,3.07
2019-02-26T15:10:32.108Z,3.43
2019-02-26T15:11:39.312Z,3.10
2019-02-26T15:12:46.880Z,3.43
2019-02-26T15:13:54.050Z,3.77
2019-02-26T15:15:01.230Z,3.77
2019-02-26T15:16:08.758Z,4.07
2019-02-26T15:17:15.909Z,3.70
2019-02-26T15:18:23.089Z,3.70
2019-02-26T15:19:30.244Z,3.37
2019-02-26T15:20:37.407Z,3.33
2019-02-26T15:21:44.580Z,3.63
2019-02-26T15:22:51.902Z,3.90
2019-02-26T15:23:59.244Z,3.77
2019-02-26T15:25:08.931Z,3.50
2019-02-26T15:26:16.097Z,3.83
2019-02-26T15:27:23.182Z,3.83
2019-02-26T15:28:30.280Z,3.27
2019-02-26T15:29:37.437Z,3.60
2019-02-26T15:30:44.771Z,3.67
2019-02-26T15:31:52.029Z,3.87
2019-02-26T15:32:59.268Z,4.23
2019-02-26T15:34:06.612Z,4.20
2019-02-26T15:35:14.056Z,4.20
2019-02-26T15:36:21.522Z,4.30
2019-02-26T15:37:28.957Z,4.17
2019-02-26T15:38:36.235Z,4.07